Time;durP1;ratioP1;P1;durP2;ratioP2;P2;SDS_P1;SDS_P2;PMS_P1;PMS_P2;Temp;Humidity;BMP_temperature;BMP_pressure;BME280_temperature;BME280_humidity;BME280_pressure;Samples;Min_cycle;Max_cycle;Signal;HPM_P1;HPM_P2
2023/12/10 00:00:50;;;;;;;36.78;16.13;;;;;;;20.04;37.50;99965.25;2107310;28;20975;-64
2023/12/10 00:01:53;;;;;;;31.70;15.70;;;;;;;20.02;37.39;99965.63;2107011;28;20151;-63
2023/12/10 00:02:54;;;;;;;34.92;16.40;;;;;;;20.01;37.41;99972.22;2107776;28;20035;-63
2023/12/10 00:03:57;;;;;;;33.30;15.48;;;;;;;20.00;37.46;99973.38;2107377;28;20044;-63
2023/12/10 00:05:00;;;;;;;36.63;16.25;;;;;;;19.97;37.54;99965.09;2107099;28;20933;-63
2023/12/10 00:06:05;;;;;;;28.55;14.63;;;;;;;19.97;37.58;99968.63;2107532;28;20028;-66
2023/12/10 00:07:08;;;;;;;30.98;15.55;;;;;;;19.94;37.58;99974.78;2107339;28;20028;-66
2023/12/10 00:08:11;;;;;;;32.20;15.73;;;;;;;19.93;37.63;99975.94;2108216;28;20090;-66
2023/12/10 00:09:12;;;;;;;32.40;15.30;;;;;;;19.90;37.63;99971.97;2107170;28;21250;-65
2023/12/10 00:10:13;;;;;;;32.83;15.82;;;;;;;19.90;37.57;99965.75;2090747;28;20045;-65
2023/12/10 00:11:19;;;;;;;28.73;15.23;;;;;;;19.87;37.62;99967.22;2096924;28;20139;-66
2023/12/10 00:12:22;;;;;;;32.83;15.93;;;;;;;19.86;37.52;99962.13;2100310;28;20844;-65
2023/12/10 00:13:26;;;;;;;30.20;15.68;;;;;;;19.84;37.59;99967.16;2099470;28;20059;-65
2023/12/10 00:14:28;;;;;;;30.48;15.10;;;;;;;19.82;37.64;99970.22;2099285;28;20864;-66
2023/12/10 00:15:29;;;;;;;31.90;15.18;;;;;;;19.82;37.59;99964.78;2090982;28;20140;-66
2023/12/10 00:16:32;;;;;;;29.83;15.15;;;;;;;19.80;37.60;99953.44;2107782;28;20757;-66
2023/12/10 00:17:35;;;;;;;32.17;15.68;;;;;;;19.80;37.56;99952.66;2093253;28;20032;-66
2023/12/10 00:18:37;;;;;;;34.13;16.02;;;;;;;19.79;37.63;99953.78;2083195;28;20184;-66
2023/12/10 00:19:42;;;;;;;33.92;17.08;;;;;;;19.79;37.68;99948.31;2088863;28;20179;-65
2023/12/10 00:20:48;;;;;;;33.42;15.00;;;;;;;19.77;37.73;99950.63;2091345;28;20124;-63
2023/12/10 00:21:50;;;;;;;30.52;15.45;;;;;;;19.74;37.59;99951.34;2090640;28;20037;-63
2023/12/10 00:22:52;;;;;;;32.00;16.20;;;;;;;19.74;37.74;99951.34;2082645;28;20041;-63
2023/12/10 00:23:54;;;;;;;29.67;15.38;;;;;;;19.73;37.63;99945.06;2091088;28;20038;-63
2023/12/10 00:24:59;;;;;;;33.28;16.42;;;;;;;19.72;37.64;99942.72;2091068;28;20171;-63
2023/12/10 00:26:02;;;;;;;34.67;16.50;;;;;;;19.70;37.68;99945.00;2099376;28;20144;-62
2023/12/10 00:27:04;;;;;;;30.00;15.35;;;;;;;19.70;37.53;99939.53;2107496;28;20016;-63
2023/12/10 00:28:07;;;;;;;33.97;16.25;;;;;;;19.68;37.68;99948.88;2099146;28;20032;-63
2023/12/10 00:29:09;;;;;;;33.25;16.83;;;;;;;19.66;37.75;99944.91;2099222;28;20089;-65
2023/12/10 00:30:15;;;;;;;32.92;14.98;;;;;;;19.65;37.64;99943.34;2107292;28;20066;-64
2023/12/10 00:31:21;;;;;;;33.90;15.80;;;;;;;19.63;37.64;99946.38;2107658;28;20736;-64
2023/12/10 00:32:23;;;;;;;30.77;16.17;;;;;;;19.63;37.69;99943.66;2108153;28;20752;-64
2023/12/10 00:33:31;;;;;;;32.75;15.98;;;;;;;19.63;37.55;99938.19;2107265;28;20021;-64
2023/12/10 00:34:35;;;;;;;30.60;15.25;;;;;;;19.62;37.70;99939.34;2099330;28;20045;-64
2023/12/10 00:35:36;;;;;;;32.30;16.45;;;;;;;19.60;37.62;99936.19;2099197;28;20872;-64
2023/12/10 00:36:39;;;;;;;32.13;15.90;;;;;;;19.60;37.63;99935.41;2099272;28;20029;-64
2023/12/10 00:37:44;;;;;;;34.17;15.80;;;;;;;19.58;37.65;99943.94;2099030;28;20025;-64
2023/12/10 00:38:49;;;;;;;35.30;16.33;;;;;;;19.57;37.63;99934.16;2107837;28;20016;-64
2023/12/10 00:39:54;;;;;;;35.20;17.40;;;;;;;19.57;37.73;99941.56;2107548;28;20905;-64
2023/12/10 00:41:01;;;;;;;33.35;15.68;;;;;;;19.55;37.76;99944.66;2107404;28;20067;-65
2023/12/10 00:42:07;;;;;;;33.78;16.65;;;;;;;19.54;37.76;99945.00;2105219;28;20028;-63
2023/12/10 00:43:12;;;;;;;41.03;17.35;;;;;;;19.53;37.85;99943.41;2106265;28;20031;-63
2023/12/10 00:44:17;;;;;;;35.00;16.80;;;;;;;19.52;37.73;99939.13;2105709;28;20021;-63
2023/12/10 00:45:19;;;;;;;39.05;16.90;;;;;;;19.50;37.89;99944.91;2106235;28;20062;-63
2023/12/10 00:46:25;;;;;;;34.85;16.60;;;;;;;19.50;37.79;99942.19;2097511;28;20064;-64
2023/12/10 00:47:28;;;;;;;37.80;16.35;;;;;;;19.48;37.89;99933.56;2090349;28;20050;-63
2023/12/10 00:48:30;;;;;;;36.38;17.25;;;;;;;19.48;37.84;99932.78;2105863;28;20021;-64
2023/12/10 00:49:32;;;;;;;34.53;15.88;;;;;;;19.46;37.80;99941.31;2105821;28;21034;-64
2023/12/10 00:50:39;;;;;;;34.92;15.98;;;;;;;19.46;37.87;99938.59;2105937;28;20882;-64
2023/12/10 00:51:42;;;;;;;35.22;15.50;;;;;;;19.45;37.81;99939.72;2105749;28;20048;-64
2023/12/10 00:52:48;;;;;;;33.38;16.27;;;;;;;19.43;37.81;99942.81;2098031;28;20127;-64
2023/12/10 00:53:55;;;;;;;37.90;16.58;;;;;;;19.43;37.76;99942.81;2106366;28;20031;-63
2023/12/10 00:54:57;;;;;;;31.45;16.08;;;;;;;19.42;37.81;99941.22;2105166;28;20070;-63
2023/12/10 00:56:02;;;;;;;32.13;16.23;;;;;;;19.42;37.92;99945.91;2106426;28;20144;-64
2023/12/10 00:57:04;;;;;;;33.17;16.40;;;;;;;19.41;37.95;99944.31;2105460;28;20041;-64
2023/12/10 00:58:09;;;;;;;32.08;15.80;;;;;;;19.40;37.94;99942.72;2106361;28;20832;-64
2023/12/10 00:59:15;;;;;;;31.73;15.63;;;;;;;19.40;38.07;99948.97;2097071;28;20135;-64
2023/12/10 01:00:19;;;;;;;32.28;15.52;;;;;;;19.39;38.08;99949.34;2090090;28;20100;-64
2023/12/10 01:01:21;;;;;;;33.63;16.17;;;;;;;19.38;38.02;99950.47;2088923;28;20026;-63
2023/12/10 01:02:26;;;;;;;35.50;16.30;;;;;;;19.37;37.96;99944.22;2089582;28;20076;-63
2023/12/10 01:03:31;;;;;;;32.92;15.82;;;;;;;19.36;38.03;99944.59;2098018;28;20037;-63
2023/12/10 01:04:32;;;;;;;33.47;16.05;;;;;;;19.36;37.99;99947.31;2089498;28;20891;-63
2023/12/10 01:05:35;;;;;;;32.97;15.32;;;;;;;19.35;38.07;99942.97;2089205;28;21453;-63
2023/12/10 01:06:37;;;;;;;35.00;16.60;;;;;;;19.34;37.98;99949.59;2105979;28;20744;-63
2023/12/10 01:07:40;;;;;;;36.80;16.20;;;;;;;19.33;37.99;99942.56;2113570;28;20043;-64
2023/12/10 01:08:45;;;;;;;37.20;16.05;;;;;;;19.32;38.04;99940.97;2097399;28;20044;-64
2023/12/10 01:09:50;;;;;;;34.13;16.77;;;;;;;19.32;38.02;99943.69;2089971;28;20064;-64
2023/12/10 01:10:52;;;;;;;30.48;15.63;;;;;;;19.30;37.93;99946.78;2098331;28;20779;-63
2023/12/10 01:11:55;;;;;;;38.30;17.20;;;;;;;19.31;38.05;99947.56;2097767;28;20069;-64
2023/12/10 01:12:57;;;;;;;34.17;16.48;;;;;;;19.30;38.16;99954.16;2105988;28;21360;-64
2023/12/10 01:14:02;;;;;;;33.35;15.43;;;;;;;19.28;38.15;99951.78;2106063;28;20869;-65
2023/12/10 01:15:10;;;;;;;35.83;16.77;;;;;;;19.29;38.27;99952.56;2097732;28;20032;-65
2023/12/10 01:16:16;;;;;;;30.65;15.43;;;;;;;19.29;38.16;99955.28;2089883;28;20072;-65
2023/12/10 01:17:18;;;;;;;35.35;16.20;;;;;;;19.25;38.28;99951.69;2095979;28;20063;-65
2023/12/10 01:18:20;;;;;;;31.02;14.88;;;;;;;19.26;38.27;99954.06;2097660;28;20131;-64
2023/12/10 01:19:23;;;;;;;32.80;16.58;;;;;;;19.25;38.51;99951.69;2097952;28;20830;-66
2023/12/10 01:20:27;;;;;;;33.70;16.98;;;;;;;19.26;38.34;99947.81;2105617;28;20035;-64
2023/12/10 01:21:32;;;;;;;31.92;14.93;;;;;;;19.26;38.33;99958.72;2105831;28;20875;-65
2023/12/10 01:22:34;;;;;;;37.78;16.58;;;;;;;19.24;38.34;99961.81;2105943;28;20866;-65
2023/12/10 01:23:37;;;;;;;34.97;15.85;;;;;;;19.23;38.28;99960.22;2089217;28;20036;-65
2023/12/10 01:24:42;;;;;;;33.78;15.65;;;;;;;19.24;38.32;99961.03;2089307;28;20021;-64
2023/12/10 01:25:43;;;;;;;35.75;16.33;;;;;;;19.22;38.31;99964.88;2105837;28;20127;-65
2023/12/10 01:26:45;;;;;;;29.95;15.13;;;;;;;19.22;38.41;99964.09;2104064;28;20043;-64
2023/12/10 01:27:51;;;;;;;34.17;16.63;;;;;;;19.21;38.36;99957.06;2098020;28;20021;-65
2023/12/10 01:28:53;;;;;;;31.23;14.65;;;;;;;19.20;38.42;99956.28;2097367;28;20072;-64
2023/12/10 01:29:56;;;;;;;33.35;15.40;;;;;;;19.21;38.29;99957.06;2102505;28;20052;-64
2023/12/10 01:31:02;;;;;;;32.90;14.85;;;;;;;19.20;38.50;99953.53;2097305;28;20028;-64
2023/12/10 01:32:07;;;;;;;31.92;15.43;;;;;;;19.20;38.45;99948.09;2104267;28;20056;-64
2023/12/10 01:33:10;;;;;;;32.65;16.15;;;;;;;19.19;38.51;99954.66;2105458;28;20027;-64
2023/12/10 01:34:11;;;;;;;31.98;14.85;;;;;;;19.19;38.43;99957.41;2097217;28;20246;-64
2023/12/10 01:35:16;;;;;;;35.55;16.83;;;;;;;19.18;38.34;99961.28;2089050;28;20032;-64
2023/12/10 01:36:24;;;;;;;31.88;15.77;;;;;;;19.17;38.34;99951.53;2088999;28;20037;-65
2023/12/10 01:37:26;;;;;;;31.60;15.23;;;;;;;19.18;38.45;99958.53;2090189;28;20040;-64
2023/12/10 01:38:28;;;;;;;37.88;15.80;;;;;;;19.18;38.31;99961.28;2096153;28;20037;-65
2023/12/10 01:39:30;;;;;;;35.42;15.98;;;;;;;19.16;38.40;99952.66;2097118;28;20029;-64
2023/12/10 01:40:35;;;;;;;34.70;15.95;;;;;;;19.17;38.43;99948.78;2097169;28;20032;-64
2023/12/10 01:41:39;;;;;;;32.80;15.90;;;;;;;19.16;38.36;99958.09;2103519;28;20072;-64
2023/12/10 01:42:47;;;;;;;35.38;15.77;;;;;;;19.16;38.33;99955.38;2088833;28;20030;-63
2023/12/10 01:43:49;;;;;;;34.35;15.70;;;;;;;19.16;38.46;99954.59;2098047;28;20860;-64
2023/12/10 01:44:51;;;;;;;32.45;15.32;;;;;;;19.16;38.49;99954.59;2096917;28;20187;-63
2023/12/10 01:45:56;;;;;;;32.92;15.40;;;;;;;19.15;38.41;99953.78;2097332;28;20136;-63
2023/12/10 01:46:58;;;;;;;32.53;15.45;;;;;;;19.16;38.43;99954.59;2094492;28;20095;-62
2023/12/10 01:48:04;;;;;;;30.42;14.57;;;;;;;19.14;38.54;99946.78;2081151;28;20026;-63
2023/12/10 01:49:07;;;;;;;34.92;15.25;;;;;;;19.15;38.50;99956.53;2090308;28;20038;-63
2023/12/10 01:50:13;;;;;;;33.60;15.18;;;;;;;19.15;38.46;99953.78;2097867;28;20916;-63
2023/12/10 01:51:15;;;;;;;30.23;14.80;;;;;;;19.15;38.41;99955.75;2088884;28;20033;-63
2023/12/10 01:52:22;;;;;;;34.15;16.13;;;;;;;19.13;38.52;99947.91;2089206;28;20912;-63
2023/12/10 01:53:23;;;;;;;32.13;15.32;;;;;;;19.10;38.38;99939.63;2105107;28;20840;-64
2023/12/10 01:54:26;;;;;;;35.65;15.27;;;;;;;19.12;38.41;99946.31;2105102;28;20043;-62
2023/12/10 01:55:36;;;;;;;34.22;15.27;;;;;;;19.12;38.48;99949.03;2089867;28;20857;-63
2023/12/10 01:56:43;;;;;;;34.25;15.95;;;;;;;19.11;38.39;99944.75;2097776;28;20111;-63
2023/12/10 01:57:48;;;;;;;34.47;15.25;;;;;;;19.11;38.43;99942.03;2105445;28;20033;-63
2023/12/10 01:58:50;;;;;;;34.55;16.08;;;;;;;19.11;38.48;99942.03;2105736;28;20040;-63
2023/12/10 01:59:56;;;;;;;32.45;14.93;;;;;;;19.09;38.38;99938.84;2105566;28;20017;-64
2023/12/10 02:00:59;;;;;;;33.58;16.02;;;;;;;19.10;38.46;99937.69;2105348;28;21110;-65
2023/12/10 02:02:05;;;;;;;32.42;15.07;;;;;;;19.10;38.47;99950.53;2105129;28;20040;-64
2023/12/10 02:03:06;;;;;;;29.67;14.52;;;;;;;19.10;38.43;99945.09;2105461;28;20024;-65
2023/12/10 02:04:11;;;;;;;32.22;15.50;;;;;;;19.08;38.45;99937.28;2089033;28;20983;-65
2023/12/10 02:05:17;;;;;;;35.00;16.38;;;;;;;19.09;38.49;99944.31;2089855;28;20039;-65
2023/12/10 02:06:22;;;;;;;32.17;15.45;;;;;;;19.08;38.45;99952.84;2098206;28;20119;-64
2023/12/10 02:07:28;;;;;;;31.83;15.80;;;;;;;19.07;38.56;99946.56;2105566;28;20095;-65
2023/12/10 02:08:30;;;;;;;31.30;15.02;;;;;;;19.06;38.43;99944.22;2106021;28;20878;-65
2023/12/10 02:09:31;;;;;;;32.35;15.65;;;;;;;19.07;38.54;99946.56;2088871;28;20103;-65
2023/12/10 02:10:36;;;;;;;33.15;15.18;;;;;;;19.06;38.34;99947.72;2088955;28;20017;-65
2023/12/10 02:11:44;;;;;;;30.38;15.23;;;;;;;19.07;38.54;99945.78;2096756;28;20234;-65
2023/12/10 02:12:52;;;;;;;29.95;15.13;;;;;;;19.04;38.56;99944.56;2097099;28;20784;-65
2023/12/10 02:13:54;;;;;;;34.85;15.30;;;;;;;19.06;38.41;99949.66;2097855;28;20139;-65
2023/12/10 02:14:59;;;;;;;35.85;15.55;;;;;;;19.06;38.45;99949.66;2096976;28;20037;-65
2023/12/10 02:16:01;;;;;;;30.27;15.30;;;;;;;19.05;38.42;99946.16;2089256;28;20052;-65
2023/12/10 02:17:03;;;;;;;32.60;15.55;;;;;;;19.04;38.50;99946.47;2089040;28;20080;-65
2023/12/10 02:18:05;;;;;;;32.05;15.38;;;;;;;19.03;38.51;99948.44;2097461;28;20021;-65
2023/12/10 02:19:07;;;;;;;33.33;14.85;;;;;;;19.04;38.51;99958.19;2097695;28;20041;-65
2023/12/10 02:20:12;;;;;;;32.25;15.05;;;;;;;19.04;38.56;99941.84;2081334;28;20034;-64
2023/12/10 02:21:14;;;;;;;31.10;15.10;;;;;;;19.03;38.45;99953.88;2081170;28;20132;-65
2023/12/10 02:22:21;;;;;;;31.40;15.55;;;;;;;19.03;38.57;99951.16;2097317;28;20036;-65
2023/12/10 02:23:33;;;;;;;31.17;15.63;;;;;;;19.02;38.48;99946.84;2081330;28;20740;-65
2023/12/10 02:24:52;;;;;;;31.77;14.77;;;;;;;19.01;38.50;99948.00;2075396;28;20180;-65
2023/12/10 02:25:54;;;;;;;31.23;14.15;;;;;;;19.01;38.49;99948.00;2093781;28;20040;-64
2023/12/10 02:26:59;;;;;;;30.20;14.65;;;;;;;18.99;38.41;99944.81;2105616;28;20079;-65
2023/12/10 02:28:03;;;;;;;37.05;16.00;;;;;;;19.01;38.48;99950.72;2106906;28;20031;-65
2023/12/10 02:29:04;;;;;;;31.52;15.45;;;;;;;19.00;38.47;99951.84;2088922;28;20047;-65
2023/12/10 02:30:09;;;;;;;31.42;15.52;;;;;;;19.00;38.57;99946.41;2081162;28;20092;-64
2023/12/10 02:31:12;;;;;;;33.42;15.65;;;;;;;18.99;38.63;99944.81;2098091;28;20080;-65
2023/12/10 02:32:16;;;;;;;34.47;15.75;;;;;;;18.98;38.61;99940.53;2105777;28;20025;-65
2023/12/10 02:33:18;;;;;;;31.00;14.45;;;;;;;18.99;38.69;99948.34;2097204;28;20025;-65
2023/12/10 02:34:22;;;;;;;34.80;15.65;;;;;;;19.01;38.58;99948.00;2089818;28;20068;-65
2023/12/10 02:35:23;;;;;;;31.55;14.32;;;;;;;19.00;38.67;99940.94;2096622;28;20816;-66
2023/12/10 02:36:27;;;;;;;32.38;15.25;;;;;;;19.01;38.76;99949.91;2097353;28;20044;-65
2023/12/10 02:37:32;;;;;;;31.50;14.82;;;;;;;19.00;38.72;99940.94;2097943;28;20025;-66
2023/12/10 02:38:34;;;;;;;32.92;15.23;;;;;;;19.00;38.72;99940.94;2105446;28;20031;-65
2023/12/10 02:39:36;;;;;;;31.30;14.80;;;;;;;19.00;38.46;99935.50;2105484;28;20154;-65
2023/12/10 02:40:38;;;;;;;28.98;14.55;;;;;;;19.00;38.75;99940.94;2097373;28;20039;-63
2023/12/10 02:41:42;;;;;;;30.67;14.93;;;;;;;19.00;38.74;99943.69;2105582;28;20021;-64
2023/12/10 02:42:50;;;;;;;31.85;14.43;;;;;;;19.00;38.76;99935.50;2114517;28;20827;-64
2023/12/10 02:43:52;;;;;;;30.70;14.68;;;;;;;18.99;38.81;99940.16;2113751;28;21020;-65
2023/12/10 02:44:56;;;;;;;28.17;13.95;;;;;;;19.01;38.78;99945.28;2106723;28;20025;-63
2023/12/10 02:45:58;;;;;;;32.38;15.32;;;;;;;18.99;38.89;99937.44;2107144;28;20043;-65
2023/12/10 02:47:01;;;;;;;33.22;14.75;;;;;;;19.01;38.82;99939.00;2106354;28;20025;-64
2023/12/10 02:48:04;;;;;;;30.25;14.63;;;;;;;19.02;38.81;99937.88;2106960;28;20025;-64
2023/12/10 02:49:08;;;;;;;31.48;14.73;;;;;;;19.01;38.83;99942.56;2098794;28;20031;-64
2023/12/10 02:50:11;;;;;;;32.92;13.82;;;;;;;19.01;38.79;99939.81;2083002;28;20034;-63
2023/12/10 02:51:13;;;;;;;29.85;15.23;;;;;;;19.01;38.89;99941.72;2090195;28;20035;-64
2023/12/10 02:52:15;;;;;;;30.08;13.63;;;;;;;19.01;38.77;99942.56;2098657;28;20044;-64
2023/12/10 02:53:17;;;;;;;29.77;14.75;;;;;;;19.01;38.78;99941.72;2107546;28;20123;-64
2023/12/10 02:54:19;;;;;;;30.42;14.07;;;;;;;19.00;38.93;99940.94;2098297;28;20031;-64
2023/12/10 02:55:22;;;;;;;29.40;14.80;;;;;;;19.00;38.87;99949.13;2091036;28;20036;-64
2023/12/10 02:56:24;;;;;;;31.27;14.70;;;;;;;19.01;38.70;99942.56;2098387;28;20963;-65
2023/12/10 02:57:26;;;;;;;31.17;14.77;;;;;;;19.00;38.82;99938.22;2106844;28;20799;-63
2023/12/10 02:58:27;;;;;;;26.60;12.50;;;;;;;18.99;38.87;99944.81;2089366;28;20029;-64
2023/12/10 02:59:31;;;;;;;25.48;12.68;;;;;;;19.01;39.08;99948.00;2089495;28;20950;-64
2023/12/10 03:00:34;;;;;;;25.05;12.40;;;;;;;19.04;38.96;99946.47;2097330;28;20922;-63
2023/12/10 03:01:36;;;;;;;23.75;11.38;;;;;;;19.04;38.96;99941.84;2088619;28;20041;-63
2023/12/10 03:02:38;;;;;;;23.85;10.95;;;;;;;19.05;39.08;99943.44;2097379;28;20021;-63
2023/12/10 03:03:40;;;;;;;21.50;10.93;;;;;;;19.09;39.14;99940.78;2105572;28;20029;-63
2023/12/10 03:04:41;;;;;;;23.60;10.93;;;;;;;19.10;39.29;99945.88;2097007;28;20025;-64
2023/12/10 03:05:43;;;;;;;22.02;11.48;;;;;;;19.14;39.36;99943.25;2088779;28;20139;-64
2023/12/10 03:06:46;;;;;;;24.50;11.98;;;;;;;19.18;39.47;99952.31;2088847;28;20033;-62
2023/12/10 03:07:53;;;;;;;20.92;10.45;;;;;;;19.21;39.46;99946.94;2098036;28;20906;-64
2023/12/10 03:08:55;;;;;;;20.08;10.75;;;;;;;19.24;39.55;99950.91;2097707;28;20159;-64
2023/12/10 03:09:57;;;;;;;19.80;10.20;;;;;;;19.27;39.54;99944.75;2089207;28;20030;-64
2023/12/10 03:10:59;;;;;;;20.08;10.15;;;;;;;19.32;39.72;99951.88;2088731;28;20144;-63
2023/12/10 03:12:04;;;;;;;19.95;10.15;;;;;;;19.35;39.63;99942.97;2089068;28;20888;-64
2023/12/10 03:13:06;;;;;;;20.30;10.20;;;;;;;19.37;39.69;99937.97;2097467;28;20841;-63
2023/12/10 03:14:09;;;;;;;18.23;9.63;;;;;;;19.41;39.69;99936.13;2105540;28;20031;-64
2023/12/10 03:15:12;;;;;;;20.23;10.60;;;;;;;19.45;39.89;99940.53;2104615;28;20791;-64
2023/12/10 03:16:17;;;;;;;16.88;9.25;;;;;;;19.49;39.72;99942.56;2097669;28;20848;-64
2023/12/10 03:17:22;;;;;;;18.10;9.82;;;;;;;19.52;39.76;99941.84;2105534;28;20063;-64
2023/12/10 03:18:27;;;;;;;18.23;8.80;;;;;;;19.55;40.02;99947.38;2106182;28;20041;-64
2023/12/10 03:19:29;;;;;;;18.45;9.48;;;;;;;19.59;39.88;99947.47;2097170;28;20795;-64
2023/12/10 03:20:33;;;;;;;16.13;9.25;;;;;;;19.63;40.01;99942.88;2080818;28;20216;-64
2023/12/10 03:21:36;;;;;;;16.80;9.35;;;;;;;19.66;40.01;99939.47;2097615;28;20063;-64
2023/12/10 03:22:38;;;;;;;16.77;8.80;;;;;;;19.69;40.12;99944.22;2105299;28;21044;-63
2023/12/10 03:23:40;;;;;;;16.42;9.05;;;;;;;19.72;40.04;99942.72;2105395;28;20175;-63
2023/12/10 03:24:42;;;;;;;19.13;9.57;;;;;;;19.74;40.11;99934.97;2105420;28;20037;-63
2023/12/10 03:25:44;;;;;;;17.52;9.38;;;;;;;19.78;39.88;99935.84;2097194;28;20868;-62
2023/12/10 03:26:45;;;;;;;17.90;9.88;;;;;;;19.80;40.14;99937.06;2088949;28;20151;-63
2023/12/10 03:27:47;;;;;;;17.70;9.48;;;;;;;19.84;40.25;99932.47;2080534;28;20133;-63
2023/12/10 03:28:56;;;;;;;18.00;9.77;;;;;;;19.87;40.13;99929.03;2090358;28;20044;-63
2023/12/10 03:29:58;;;;;;;17.88;9.65;;;;;;;19.91;40.27;99923.66;2104961;28;20032;-63
2023/12/10 03:31:01;;;;;;;18.83;9.60;;;;;;;19.94;40.09;99933.88;2096978;28;20045;-63
2023/12/10 03:32:03;;;;;;;16.35;8.75;;;;;;;19.97;40.57;99933.16;2080793;28;20033;-63
2023/12/10 03:33:06;;;;;;;19.88;10.07;;;;;;;20.00;40.34;99931.66;2081024;28;20054;-63
2023/12/10 03:34:13;;;;;;;18.30;9.45;;;;;;;20.03;40.30;99931.72;2097492;28;20041;-63
2023/12/10 03:35:16;;;;;;;17.92;9.75;;;;;;;20.05;40.24;99923.97;2105345;28;20135;-63
2023/12/10 03:36:19;;;;;;;20.10;9.75;;;;;;;20.08;40.34;99936.91;2105152;28;20045;-63
2023/12/10 03:37:21;;;;;;;17.38;9.20;;;;;;;20.10;40.41;99926.41;2088648;28;20061;-63
2023/12/10 03:38:23;;;;;;;17.45;9.57;;;;;;;20.13;40.38;99928.41;2080704;28;20152;-63
2023/12/10 03:39:27;;;;;;;19.38;10.00;;;;;;;20.16;40.34;99929.66;2089324;28;20773;-64
2023/12/10 03:40:28;;;;;;;15.32;9.50;;;;;;;20.19;40.48;99928.16;2080984;28;20026;-64
2023/12/10 03:41:32;;;;;;;19.00;9.75;;;;;;;20.22;40.36;99930.94;2089363;28;20076;-64
2023/12/10 03:42:35;;;;;;;18.95;9.65;;;;;;;20.25;40.48;99926.72;2105920;28;20042;-64
2023/12/10 03:43:37;;;;;;;20.38;10.13;;;;;;;20.28;40.52;99928.72;2105691;28;20130;-64
2023/12/10 03:44:40;;;;;;;16.58;9.27;;;;;;;20.29;40.49;99924.84;2097623;28;20857;-64
2023/12/10 03:45:41;;;;;;;16.77;9.18;;;;;;;20.32;40.53;99929.59;2098484;28;20860;-64
2023/12/10 03:46:46;;;;;;;16.77;9.45;;;;;;;20.35;40.55;99935.09;2106360;28;21239;-64
2023/12/10 03:47:48;;;;;;;17.58;9.70;;;;;;;20.36;40.53;99925.78;2107383;28;20032;-64
2023/12/10 03:48:53;;;;;;;18.67;9.75;;;;;;;20.38;40.67;99928.94;2114675;28;20056;-65
2023/12/10 03:49:55;;;;;;;18.08;9.93;;;;;;;20.42;40.61;99937.19;2114717;28;20834;-64
2023/12/10 03:50:57;;;;;;;18.40;9.93;;;;;;;20.44;40.54;99932.16;2106283;28;20783;-64
2023/12/10 03:51:59;;;;;;;18.35;9.38;;;;;;;20.47;40.54;99928.72;2098309;28;20140;-64
2023/12/10 03:53:00;;;;;;;18.73;10.23;;;;;;;20.49;40.72;99926.44;2089867;28;20134;-64
2023/12/10 03:54:03;;;;;;;17.77;9.40;;;;;;;20.52;40.68;99941.31;2090034;28;20064;-64
2023/12/10 03:55:09;;;;;;;18.63;9.40;;;;;;;20.55;40.66;99935.13;2089419;28;20099;-64
2023/12/10 03:56:13;;;;;;;16.27;9.13;;;;;;;20.56;40.80;99937.50;2083924;28;20030;-64
2023/12/10 03:57:15;;;;;;;15.43;8.85;;;;;;;20.59;40.71;99942.25;2106473;28;20863;-64
2023/12/10 03:58:17;;;;;;;17.60;9.00;;;;;;;20.58;40.64;99927.00;2106703;28;20056;-64
2023/12/10 03:59:18;;;;;;;15.73;9.68;;;;;;;20.63;40.77;99936.06;2097973;28;20033;-64
2023/12/10 04:00:21;;;;;;;17.27;9.63;;;;;;;20.64;40.74;99938.44;2098535;28;20114;-64
2023/12/10 04:01:26;;;;;;;17.27;9.07;;;;;;;20.67;40.67;99932.25;2080857;28;20765;-64
2023/12/10 04:02:28;;;;;;;18.92;9.65;;;;;;;20.69;40.58;99929.94;2090754;28;20197;-64
2023/12/10 04:03:34;;;;;;;16.05;9.48;;;;;;;20.71;40.94;99933.13;2098672;28;20739;-64
2023/12/10 04:04:39;;;;;;;18.90;9.50;;;;;;;20.73;40.85;99936.25;2106764;28;20032;-64
2023/12/10 04:05:41;;;;;;;16.17;8.75;;;;;;;20.74;40.93;99937.84;2098212;28;20067;-64
2023/12/10 04:06:44;;;;;;;16.73;9.35;;;;;;;20.77;40.76;99933.59;2097932;28;20859;-63
2023/12/10 04:07:48;;;;;;;18.60;9.82;;;;;;;20.79;40.85;99936.75;2098596;28;20072;-64
2023/12/10 04:08:54;;;;;;;16.40;8.93;;;;;;;20.81;40.76;99937.19;2099015;28;20033;-64
2023/12/10 04:09:57;;;;;;;16.58;9.35;;;;;;;20.83;40.92;99934.88;2089919;28;20030;-62
2023/12/10 04:10:59;;;;;;;16.92;9.13;;;;;;;20.85;40.95;99935.31;2081905;28;20845;-64
2023/12/10 04:12:05;;;;;;;18.23;9.98;;;;;;;20.86;40.81;99927.91;2089689;28;20034;-63
2023/12/10 04:13:07;;;;;;;16.63;9.00;;;;;;;20.88;40.84;99929.13;2082236;28;20036;-64
2023/12/10 04:14:10;;;;;;;18.15;8.88;;;;;;;20.91;40.91;99919.41;2090042;28;20077;-64
2023/12/10 04:15:12;;;;;;;17.42;8.35;;;;;;;20.93;40.90;99920.63;2105898;28;20246;-63
2023/12/10 04:16:27;;;;;;;15.95;8.73;;;;;;;20.94;40.97;99919.47;2097938;28;20025;-64
2023/12/10 04:17:31;;;;;;;18.35;8.98;;;;;;;20.94;40.84;99914.00;2084626;28;20037;-63
2023/12/10 04:18:35;;;;;;;16.30;9.30;;;;;;;20.98;40.92;99925.78;2091608;28;20145;-64
2023/12/10 04:19:37;;;;;;;17.35;9.13;;;;;;;20.98;40.77;99920.31;2099311;28;20084;-64
2023/12/10 04:20:41;;;;;;;17.52;9.20;;;;;;;21.02;40.88;99923.09;2091372;28;20025;-64
2023/12/10 04:21:45;;;;;;;15.57;8.82;;;;;;;21.00;40.88;99918.00;2091523;28;20078;-64
2023/12/10 04:22:48;;;;;;;17.42;9.10;;;;;;;21.04;40.81;99924.31;2083228;28;20887;-64
2023/12/10 04:23:50;;;;;;;17.77;9.70;;;;;;;21.06;40.97;99921.25;2082819;28;20041;-64
2023/12/10 04:24:54;;;;;;;17.65;8.95;;;;;;;21.07;40.89;99925.53;2083383;28;20238;-64
2023/12/10 04:25:59;;;;;;;18.42;9.15;;;;;;;21.09;40.99;99919.69;2092041;28;20026;-64
2023/12/10 04:27:05;;;;;;;15.43;8.57;;;;;;;21.11;40.97;99917.41;2107836;28;20045;-64
2023/12/10 04:28:07;;;;;;;15.02;8.95;;;;;;;21.12;41.08;99916.22;2090638;28;20097;-64
2023/12/10 04:29:11;;;;;;;17.40;9.40;;;;;;;21.14;40.99;99919.41;2083140;28;20033;-64
2023/12/10 04:30:19;;;;;;;14.77;8.60;;;;;;;21.14;40.99;99916.66;2091307;28;20037;-64
2023/12/10 04:31:21;;;;;;;17.25;9.02;;;;;;;21.16;41.10;99911.63;2091541;28;20064;-63
2023/12/10 04:32:22;;;;;;;18.42;9.13;;;;;;;21.18;40.91;99920.25;2082462;28;20030;-63
2023/12/10 04:33:24;;;;;;;16.10;8.82;;;;;;;21.20;40.82;99926.94;2082963;28;20042;-63
2023/12/10 04:34:27;;;;;;;16.00;8.95;;;;;;;21.21;40.97;99920.28;2098644;28;20060;-63
2023/12/10 04:35:30;;;;;;;16.13;8.80;;;;;;;21.23;40.94;99928.16;2099326;28;20049;-64
2023/12/10 04:36:33;;;;;;;16.08;8.63;;;;;;;21.23;40.94;99930.88;2090395;28;20022;-63
2023/12/10 04:37:35;;;;;;;15.50;8.82;;;;;;;21.26;40.90;99924.69;2082315;28;20052;-64
2023/12/10 04:38:37;;;;;;;15.73;9.02;;;;;;;21.26;41.03;99925.47;2082209;28;20872;-63
2023/12/10 04:39:38;;;;;;;16.65;9.48;;;;;;;21.26;40.95;99927.41;2082298;28;20128;-63
2023/12/10 04:40:43;;;;;;;16.25;9.55;;;;;;;21.28;41.12;99934.09;2082475;28;20022;-63
2023/12/10 04:41:44;;;;;;;16.05;8.88;;;;;;;21.30;40.89;99931.00;2082707;28;20050;-63
2023/12/10 04:42:47;;;;;;;15.63;8.95;;;;;;;21.28;41.18;99919.66;2090758;28;20037;-63
2023/12/10 04:43:48;;;;;;;16.15;8.35;;;;;;;21.33;40.94;99924.78;2090646;28;20034;-63
2023/12/10 04:44:50;;;;;;;17.30;9.13;;;;;;;21.34;41.05;99920.88;2082258;28;20018;-63
2023/12/10 04:45:52;;;;;;;16.48;8.70;;;;;;;21.36;41.14;99920.56;2082181;28;20042;-63
2023/12/10 04:46:57;;;;;;;15.73;8.77;;;;;;;21.37;41.05;99924.88;2083366;28;20081;-64
2023/12/10 04:48:01;;;;;;;15.57;8.60;;;;;;;21.37;41.13;99914.72;2083240;28;20017;-63
2023/12/10 04:49:03;;;;;;;16.08;8.77;;;;;;;21.39;41.04;99917.09;2090988;28;20084;-63
2023/12/10 04:50:08;;;;;;;16.00;9.05;;;;;;;21.40;41.02;99919.47;2099422;28;20131;-64
2023/12/10 04:51:13;;;;;;;15.48;8.82;;;;;;;21.40;41.08;99919.47;2091550;28;20097;-64
2023/12/10 04:52:14;;;;;;;16.17;8.50;;;;;;;21.42;41.12;99922.63;2091823;28;20026;-62
2023/12/10 04:53:17;;;;;;;16.90;8.63;;;;;;;21.43;41.13;99924.19;2090926;28;20025;-63